Melbourne Airport Weather Forecast Tullamarine (YMML – MEL)

METAR

TTF METAR YMML 191630Z 36007KT 9999 FEW043 SCT120 BKN160 05/03 Q1021 RMK RF00.0/000.0 NOSIG

TAF

TAF YMML 191104Z 1912/2018 36006KT CAVOK FM192100 36014KT CAVOK BECMG 2012/2014 36018G32KT CAVOK RMK FM201200 MOD TURB BLW 5000FT T 08 06 05 07 Q 1023 1022 1022 1022

QNH 

1021

Temperature & Dew Point

12° DP3